createdAt,value
2018-12-04T00:00:16.961Z,1010.16
2018-12-04T00:01:16.973Z,1010.16
2018-12-04T00:02:17.079Z,1010.16
2018-12-04T00:03:16.919Z,1010.15
2018-12-04T00:04:16.959Z,1010.11
2018-12-04T00:05:16.877Z,1010.13
2018-12-04T00:06:16.957Z,1010.11
2018-12-04T00:07:16.992Z,1010.17
2018-12-04T00:08:17.013Z,1010.06
2018-12-04T00:09:16.939Z,1009.97
2018-12-04T00:10:16.897Z,1010.09
2018-12-04T00:11:16.906Z,1010.07
2018-12-04T00:12:17.068Z,1010.12
2018-12-04T00:13:16.945Z,1010.06
2018-12-04T00:14:16.965Z,1010.08
2018-12-04T00:15:16.978Z,1010.18
2018-12-04T00:16:16.952Z,1010.1
2018-12-04T00:17:17.032Z,1010.15
2018-12-04T00:18:17.186Z,1010.14
2018-12-04T00:19:17.029Z,1010.16
2018-12-04T00:20:16.989Z,1010.13
2018-12-04T00:21:17.113Z,1010.18
2018-12-04T00:22:16.913Z,1010.27
2018-12-04T00:23:16.994Z,1010.2
2018-12-04T00:24:16.940Z,1010.2
2018-12-04T00:25:17.221Z,1010.14
2018-12-04T00:26:16.962Z,1010.13
2018-12-04T00:27:16.863Z,1010.2
2018-12-04T00:28:16.972Z,1010.12
2018-12-04T00:29:16.913Z,1010.21
2018-12-04T00:30:16.965Z,1010.27
2018-12-04T00:31:17.047Z,1010.27
2018-12-04T00:32:16.998Z,1010.28
2018-12-04T00:33:17.059Z,1010.28
2018-12-04T00:34:16.969Z,1010.29
2018-12-04T00:35:17.019Z,1010.27
2018-12-04T00:36:16.979Z,1010.32
2018-12-04T00:37:16.915Z,1010.33
2018-12-04T00:38:17.400Z,1010.34
2018-12-04T00:39:16.967Z,1010.38
2018-12-04T00:40:16.951Z,1010.3
2018-12-04T00:41:17.079Z,1010.39
2018-12-04T00:42:17.132Z,1010.39
2018-12-04T00:43:16.982Z,1010.42
2018-12-04T00:44:16.957Z,1010.49
2018-12-04T00:45:16.920Z,1010.5
2018-12-04T00:46:16.931Z,1010.55
2018-12-04T00:47:16.814Z,1010.49
2018-12-04T00:48:16.954Z,1010.49
2018-12-04T00:49:16.915Z,1010.54
2018-12-04T00:50:16.971Z,1010.52
2018-12-04T00:51:16.878Z,1010.5
2018-12-04T00:52:17.020Z,1010.54
2018-12-04T00:53:17.129Z,1010.62
2018-12-04T00:54:17.172Z,1010.66
2018-12-04T00:55:16.829Z,1010.67
2018-12-04T00:56:16.981Z,1010.68
2018-12-04T00:57:17.060Z,1010.73
2018-12-04T00:58:16.954Z,1010.76
2018-12-04T00:59:17.108Z,1010.74
2018-12-04T01:00:17.479Z,1010.78
2018-12-04T01:01:16.842Z,1010.84
2018-12-04T01:02:17.149Z,1010.82
2018-12-04T01:03:17.004Z,1010.87
2018-12-04T01:04:16.887Z,1010.91
2018-12-04T01:05:16.862Z,1011
2018-12-04T01:06:17.645Z,1010.95
2018-12-04T01:07:16.946Z,1010.96
2018-12-04T01:08:16.953Z,1011
2018-12-04T01:09:16.829Z,1010.91
2018-12-04T01:10:17.286Z,1010.98
2018-12-04T01:11:16.816Z,1010.96
2018-12-04T01:12:17.070Z,1011
2018-12-04T01:13:17.001Z,1010.99
2018-12-04T01:14:17.121Z,1011
2018-12-04T01:15:17.086Z,1010.99
2018-12-04T01:16:17.030Z,1011.06
2018-12-04T01:17:16.772Z,1011.07
2018-12-04T01:18:16.806Z,1011.07
2018-12-04T01:19:16.919Z,1011.06
2018-12-04T01:20:16.799Z,1011.13
2018-12-04T01:21:16.904Z,1011.16
2018-12-04T01:22:17.027Z,1011.1
2018-12-04T01:23:16.898Z,1011.18
2018-12-04T01:24:16.981Z,1011.12
2018-12-04T01:25:16.940Z,1011.15
2018-12-04T01:26:16.983Z,1011.18
2018-12-04T01:27:17.052Z,1011.18
2018-12-04T01:28:16.893Z,1011.15
2018-12-04T01:29:16.862Z,1011.12
2018-12-04T01:30:17.280Z,1011.17
2018-12-04T01:31:17.391Z,1011.17
2018-12-04T01:32:16.988Z,1011.21
2018-12-04T01:33:16.946Z,1011.17
2018-12-04T01:34:16.793Z,1011.19
2018-12-04T01:35:16.975Z,1011.15
2018-12-04T01:36:16.950Z,1011.16
2018-12-04T01:37:17.078Z,1011.18
2018-12-04T01:38:16.822Z,1011.17
2018-12-04T01:39:16.833Z,1011.22
2018-12-04T01:40:16.798Z,1011.22
2018-12-04T01:41:16.811Z,1011.18
2018-12-04T01:42:16.787Z,1011.24
2018-12-04T01:43:16.859Z,1011.27
2018-12-04T01:44:16.797Z,1011.26
2018-12-04T01:45:16.769Z,1011.32
2018-12-04T01:46:16.791Z,1011.35
2018-12-04T01:47:16.754Z,1011.36
2018-12-04T01:48:17.078Z,1011.33
2018-12-04T01:49:16.772Z,1011.36
2018-12-04T01:50:16.785Z,1011.45
2018-12-04T01:51:16.793Z,1011.39
2018-12-04T01:52:16.812Z,1011.48
2018-12-04T01:53:17.001Z,1011.46
2018-12-04T01:54:16.736Z,1011.5
2018-12-04T01:55:16.755Z,1011.46
2018-12-04T01:56:16.810Z,1011.45
2018-12-04T01:57:16.927Z,1011.44
2018-12-04T01:58:16.780Z,1011.48
2018-12-04T01:59:16.783Z,1011.46
2018-12-04T02:00:16.999Z,1011.51
2018-12-04T02:01:17.066Z,1011.52
2018-12-04T02:02:16.858Z,1011.56
2018-12-04T02:03:17.033Z,1011.51
2018-12-04T02:04:16.761Z,1011.58
2018-12-04T02:05:16.975Z,1011.55
2018-12-04T02:06:16.774Z,1011.58
2018-12-04T02:07:17.235Z,1011.59
2018-12-04T02:08:17.013Z,1011.61
2018-12-04T02:09:16.771Z,1011.63
2018-12-04T02:10:16.994Z,1011.6
2018-12-04T02:11:17.579Z,1011.62
2018-12-04T02:12:16.937Z,1011.67
2018-12-04T02:13:16.846Z,1011.71
2018-12-04T02:14:16.844Z,1011.72
2018-12-04T02:15:16.755Z,1011.68
2018-12-04T02:16:16.710Z,1011.68
2018-12-04T02:17:16.755Z,1011.67
2018-12-04T02:18:16.923Z,1011.77
2018-12-04T02:19:16.834Z,1011.71
2018-12-04T02:20:16.703Z,1011.75
2018-12-04T02:21:16.849Z,1011.77
2018-12-04T02:22:16.770Z,1011.73
2018-12-04T02:23:16.767Z,1011.74
2018-12-04T02:24:16.768Z,1011.7
2018-12-04T02:25:16.773Z,1011.73
2018-12-04T02:26:16.726Z,1011.74
2018-12-04T02:27:16.909Z,1011.81
2018-12-04T02:28:17.000Z,1011.72
2018-12-04T02:29:16.855Z,1011.68
2018-12-04T02:30:16.792Z,1011.77
2018-12-04T02:31:16.715Z,1011.79
2018-12-04T02:32:16.984Z,1011.72
2018-12-04T02:33:16.711Z,1011.73
2018-12-04T02:34:16.917Z,1011.75
2018-12-04T02:35:17.182Z,1011.76
2018-12-04T02:36:16.812Z,1011.79
2018-12-04T02:37:16.942Z,1011.74
2018-12-04T02:38:16.918Z,1011.73
2018-12-04T02:39:16.768Z,1011.8
2018-12-04T02:40:17.053Z,1011.84
2018-12-04T02:41:17.037Z,1011.82
2018-12-04T02:42:16.923Z,1011.88
2018-12-04T02:43:16.749Z,1011.91
2018-12-04T02:44:16.741Z,1011.86
2018-12-04T02:45:16.954Z,1011.85
2018-12-04T02:46:16.950Z,1011.94
2018-12-04T02:47:16.860Z,1011.91
2018-12-04T02:48:16.666Z,1011.97
2018-12-04T02:49:16.780Z,1012.01
2018-12-04T02:50:16.992Z,1012.01
2018-12-04T02:51:16.803Z,1011.99
2018-12-04T02:52:16.777Z,1011.99
2018-12-04T02:53:16.756Z,1012.03
2018-12-04T02:54:16.760Z,1012.01
2018-12-04T02:55:16.655Z,1012.05
2018-12-04T02:56:16.752Z,1012.05
2018-12-04T02:57:16.854Z,1012.05
2018-12-04T02:58:16.694Z,1012.07
2018-12-04T02:59:16.965Z,1012.06
2018-12-04T03:00:17.120Z,1012.07
2018-12-04T03:01:16.858Z,1012.09
2018-12-04T03:02:16.797Z,1012.09
2018-12-04T03:03:16.667Z,1012.14
2018-12-04T03:04:16.775Z,1012.13
2018-12-04T03:05:16.694Z,1012.11
2018-12-04T03:06:16.906Z,1012.09
2018-12-04T03:07:16.744Z,1012.1
2018-12-04T03:08:16.719Z,1012.14
2018-12-04T03:09:16.672Z,1012.18
2018-12-04T03:10:16.691Z,1012.18
2018-12-04T03:11:16.725Z,1012.22
2018-12-04T03:12:16.663Z,1012.23
2018-12-04T03:13:16.668Z,1012.3
2018-12-04T03:14:16.888Z,1012.28
2018-12-04T03:15:16.702Z,1012.24
2018-12-04T03:16:16.988Z,1012.26
2018-12-04T03:17:16.671Z,1012.22
2018-12-04T03:18:16.677Z,1012.27
2018-12-04T03:19:16.683Z,1012.3
2018-12-04T03:20:16.691Z,1012.34
2018-12-04T03:21:16.697Z,1012.3
2018-12-04T03:22:16.650Z,1012.34
2018-12-04T03:23:16.618Z,1012.35
2018-12-04T03:24:16.917Z,1012.35
2018-12-04T03:25:16.708Z,1012.36
2018-12-04T03:26:16.747Z,1012.38
2018-12-04T03:27:16.654Z,1012.34
2018-12-04T03:28:16.681Z,1012.37
2018-12-04T03:29:16.674Z,1012.37
2018-12-04T03:30:16.662Z,1012.37
2018-12-04T03:31:16.662Z,1012.43
2018-12-04T03:32:16.660Z,1012.48
2018-12-04T03:33:16.654Z,1012.48
2018-12-04T03:34:16.675Z,1012.56
2018-12-04T03:35:16.691Z,1012.6
2018-12-04T03:36:16.768Z,1012.56
2018-12-04T03:37:16.960Z,1012.63
2018-12-04T03:38:16.624Z,1012.64
2018-12-04T03:39:16.711Z,1012.64
2018-12-04T03:40:16.628Z,1012.69
2018-12-04T03:41:16.700Z,1012.72
2018-12-04T03:42:16.612Z,1012.77
2018-12-04T03:43:16.949Z,1012.78
2018-12-04T03:44:16.639Z,1012.78
2018-12-04T03:45:16.748Z,1012.8
2018-12-04T03:46:16.687Z,1012.83
2018-12-04T03:47:16.744Z,1012.91
2018-12-04T03:48:16.639Z,1012.93
2018-12-04T03:49:16.859Z,1012.98
2018-12-04T03:50:16.729Z,1013.06
2018-12-04T03:51:16.672Z,1013.07
2018-12-04T03:52:16.728Z,1013
2018-12-04T03:53:16.820Z,1013.05
2018-12-04T03:54:16.725Z,1013.04
2018-12-04T03:55:16.961Z,1013.08
2018-12-04T03:56:16.841Z,1013.12
2018-12-04T03:57:16.747Z,1013.08
2018-12-04T03:58:16.602Z,1013.09
2018-12-04T03:59:16.847Z,1013.12
2018-12-04T04:00:16.758Z,1013.08
2018-12-04T04:01:16.970Z,1013.17
2018-12-04T04:02:16.720Z,1013.17
2018-12-04T04:03:16.702Z,1013.16
2018-12-04T04:04:16.616Z,1013.09
2018-12-04T04:05:16.905Z,1013.16
2018-12-04T04:06:16.656Z,1013.14
2018-12-04T04:07:16.664Z,1013.2
2018-12-04T04:08:16.943Z,1013.22
2018-12-04T04:09:16.713Z,1013.2
2018-12-04T04:10:17.419Z,1013.25
2018-12-04T04:11:16.681Z,1013.24
2018-12-04T04:12:16.629Z,1013.17
2018-12-04T04:13:16.606Z,1013.25
2018-12-04T04:14:16.729Z,1013.23
2018-12-04T04:15:16.634Z,1013.26
2018-12-04T04:16:16.850Z,1013.29
2018-12-04T04:17:16.794Z,1013.25
2018-12-04T04:18:16.576Z,1013.29
2018-12-04T04:19:16.572Z,1013.26
2018-12-04T04:20:16.648Z,1013.34
2018-12-04T04:21:16.610Z,1013.35
2018-12-04T04:22:16.643Z,1013.39
2018-12-04T04:23:16.687Z,1013.45
2018-12-04T04:24:16.604Z,1013.42
2018-12-04T04:25:16.633Z,1013.43
2018-12-04T04:26:17.077Z,1013.43
2018-12-04T04:27:16.699Z,1013.49
2018-12-04T04:28:16.616Z,1013.49
2018-12-04T04:29:16.629Z,1013.51
2018-12-04T04:30:16.778Z,1013.49
2018-12-04T04:31:16.639Z,1013.58
2018-12-04T04:32:16.666Z,1013.65
2018-12-04T04:33:16.707Z,1013.63
2018-12-04T04:34:16.629Z,1013.64
2018-12-04T04:35:16.581Z,1013.6
2018-12-04T04:36:16.617Z,1013.65
2018-12-04T04:37:16.684Z,1013.68
2018-12-04T04:38:16.735Z,1013.71
2018-12-04T04:39:16.660Z,1013.79
2018-12-04T04:40:16.527Z,1013.78
2018-12-04T04:41:16.734Z,1013.8
2018-12-04T04:42:16.570Z,1013.79
2018-12-04T04:43:16.601Z,1013.87
2018-12-04T04:44:16.989Z,1013.88
2018-12-04T04:45:16.756Z,1013.92
2018-12-04T04:46:16.708Z,1013.91
2018-12-04T04:47:16.591Z,1013.96
2018-12-04T04:48:16.533Z,1013.98
2018-12-04T04:49:16.532Z,1014
2018-12-04T04:50:16.550Z,1014.04
2018-12-04T04:51:16.593Z,1014.1
2018-12-04T04:52:16.534Z,1014.12
2018-12-04T04:53:16.533Z,1014.12
2018-12-04T04:54:16.871Z,1014.12
2018-12-04T04:55:16.556Z,1014.19
2018-12-04T04:56:16.561Z,1014.13
2018-12-04T04:57:16.539Z,1014.23
2018-12-04T04:58:16.562Z,1014.22
2018-12-04T04:59:16.514Z,1014.28
2018-12-04T05:00:16.655Z,1014.28
2018-12-04T05:01:16.744Z,1014.33
2018-12-04T05:02:16.523Z,1014.3
2018-12-04T05:03:16.547Z,1014.3
2018-12-04T05:04:16.662Z,1014.36
2018-12-04T05:05:16.534Z,1014.37
2018-12-04T05:06:16.752Z,1014.39
2018-12-04T05:07:16.500Z,1014.44
2018-12-04T05:08:16.504Z,1014.43
2018-12-04T05:09:16.517Z,1014.5
2018-12-04T05:10:16.545Z,1014.42
2018-12-04T05:11:16.607Z,1014.44
2018-12-04T05:12:17.117Z,1014.46
2018-12-04T05:13:16.670Z,1014.46
2018-12-04T05:14:16.615Z,1014.52
2018-12-04T05:15:16.579Z,1014.5
2018-12-04T05:16:16.657Z,1014.52
2018-12-04T05:17:16.666Z,1014.48
2018-12-04T05:18:16.569Z,1014.53
2018-12-04T05:19:16.645Z,1014.57
2018-12-04T05:20:16.621Z,1014.6
2018-12-04T05:21:16.531Z,1014.67
2018-12-04T05:22:16.601Z,1014.62
2018-12-04T05:23:16.755Z,1014.65
2018-12-04T05:24:17.056Z,1014.6
2018-12-04T05:25:16.484Z,1014.61
2018-12-04T05:26:16.628Z,1014.65
2018-12-04T05:27:16.566Z,1014.67
2018-12-04T05:28:16.634Z,1014.7
2018-12-04T05:29:16.514Z,1014.7
2018-12-04T05:30:16.510Z,1014.71
2018-12-04T05:31:16.594Z,1014.71
2018-12-04T05:32:16.499Z,1014.74
2018-12-04T05:33:16.558Z,1014.76
2018-12-04T05:34:16.546Z,1014.77
2018-12-04T05:35:17.185Z,1014.78
2018-12-04T05:36:16.645Z,1014.77
2018-12-04T05:37:16.903Z,1014.78
2018-12-04T05:38:16.680Z,1014.81
2018-12-04T05:39:16.462Z,1014.84
2018-12-04T05:40:16.506Z,1014.81
2018-12-04T05:41:16.717Z,1014.92
2018-12-04T05:42:16.706Z,1014.91
2018-12-04T05:43:16.681Z,1014.86
2018-12-04T05:44:19.481Z,1014.88
2018-12-04T05:45:16.658Z,1014.88
2018-12-04T05:46:16.663Z,1014.93
2018-12-04T05:47:16.653Z,1014.92
2018-12-04T05:48:16.514Z,1014.96
2018-12-04T05:49:16.625Z,1014.97
2018-12-04T05:50:16.452Z,1014.98
2018-12-04T05:51:16.484Z,1015.04
2018-12-04T05:52:16.785Z,1015.03
2018-12-04T05:53:16.839Z,1015.04
2018-12-04T05:54:16.639Z,1015.1
2018-12-04T05:55:16.524Z,1015.14
2018-12-04T05:56:16.475Z,1015.14
2018-12-04T05:57:16.715Z,1015.16
2018-12-04T05:58:16.611Z,1015.19
2018-12-04T05:59:16.548Z,1015.19
2018-12-04T06:00:16.466Z,1015.18
2018-12-04T06:01:16.520Z,1015.19
2018-12-04T06:02:16.601Z,1015.18
2018-12-04T06:03:16.806Z,1015.2
2018-12-04T06:04:16.502Z,1015.27
2018-12-04T06:05:16.879Z,1015.26
2018-12-04T06:06:16.759Z,1015.28
2018-12-04T06:07:16.545Z,1015.32
2018-12-04T06:08:16.702Z,1015.34
2018-12-04T06:09:16.448Z,1015.4
2018-12-04T06:10:17.269Z,1015.42
2018-12-04T06:11:16.484Z,1015.44
2018-12-04T06:12:16.457Z,1015.43
2018-12-04T06:13:16.422Z,1015.45
2018-12-04T06:14:16.529Z,1015.48
2018-12-04T06:15:16.535Z,1015.51
2018-12-04T06:16:16.458Z,1015.52
2018-12-04T06:17:16.630Z,1015.51
2018-12-04T06:18:16.532Z,1015.58
2018-12-04T06:19:16.457Z,1015.5
2018-12-04T06:20:16.600Z,1015.49
2018-12-04T06:21:16.517Z,1015.57
2018-12-04T06:22:16.651Z,1015.61
2018-12-04T06:23:16.491Z,1015.59
2018-12-04T06:24:16.522Z,1015.65
2018-12-04T06:25:16.464Z,1015.65
2018-12-04T06:26:16.510Z,1015.69
2018-12-04T06:27:16.511Z,1015.75
2018-12-04T06:28:16.430Z,1015.74
2018-12-04T06:29:16.411Z,1015.75
2018-12-04T06:30:16.846Z,1015.79
2018-12-04T06:31:16.463Z,1015.81
2018-12-04T06:32:16.458Z,1015.85
2018-12-04T06:33:16.417Z,1015.9
2018-12-04T06:34:16.474Z,1015.93
2018-12-04T06:35:16.398Z,1015.91
2018-12-04T06:36:16.404Z,1016
2018-12-04T06:37:16.481Z,1015.97
2018-12-04T06:38:16.459Z,1016
2018-12-04T06:39:16.423Z,1015.99
2018-12-04T06:40:16.432Z,1016.01
2018-12-04T06:41:16.410Z,1016.06
2018-12-04T06:42:16.388Z,1016.11
2018-12-04T06:43:16.424Z,1016.19
2018-12-04T06:44:16.441Z,1016.15
2018-12-04T06:45:16.393Z,1016.23
2018-12-04T06:46:16.424Z,1016.21
2018-12-04T06:47:16.454Z,1016.28
2018-12-04T06:48:16.491Z,1016.31
2018-12-04T06:49:16.398Z,1016.32
2018-12-04T06:50:16.423Z,1016.35
2018-12-04T06:51:16.384Z,1016.36
2018-12-04T06:52:16.455Z,1016.4
2018-12-04T06:53:16.494Z,1016.39
2018-12-04T06:54:16.554Z,1016.42
2018-12-04T06:55:16.404Z,1016.44
2018-12-04T06:56:16.420Z,1016.46
2018-12-04T06:57:16.557Z,1016.47
2018-12-04T06:58:16.490Z,1016.54
2018-12-04T06:59:16.663Z,1016.57
2018-12-04T07:00:16.415Z,1016.62
2018-12-04T07:01:16.456Z,1016.62
2018-12-04T07:02:16.421Z,1016.68
2018-12-04T07:03:16.555Z,1016.75
2018-12-04T07:04:16.436Z,1016.74
2018-12-04T07:05:16.517Z,1016.77
2018-12-04T07:06:16.417Z,1016.76
2018-12-04T07:07:16.713Z,1016.81
2018-12-04T07:08:16.456Z,1016.8
2018-12-04T07:09:16.447Z,1016.84
2018-12-04T07:10:16.397Z,1016.92
2018-12-04T07:11:16.478Z,1016.9
2018-12-04T07:12:16.462Z,1016.93
2018-12-04T07:13:16.527Z,1016.93
2018-12-04T07:14:16.363Z,1016.91
2018-12-04T07:15:16.692Z,1017
2018-12-04T07:16:16.769Z,1017.01
2018-12-04T07:17:16.426Z,1017.06
2018-12-04T07:18:16.627Z,1017.06
2018-12-04T07:19:16.549Z,1017.08
2018-12-04T07:20:16.448Z,1017.09
2018-12-04T07:21:16.361Z,1017.12
2018-12-04T07:22:16.437Z,1017.16
2018-12-04T07:23:16.450Z,1017.15
2018-12-04T07:24:16.465Z,1017.17
2018-12-04T07:25:17.255Z,1017.21
2018-12-04T07:26:16.408Z,1017.16
2018-12-04T07:27:16.867Z,1017.22
2018-12-04T07:28:16.359Z,1017.2
2018-12-04T07:29:16.487Z,1017.17
2018-12-04T07:30:16.348Z,1017.17
2018-12-04T07:31:16.417Z,1017.18
2018-12-04T07:32:16.374Z,1017.21
2018-12-04T07:33:16.329Z,1017.2
2018-12-04T07:34:16.586Z,1017.16
2018-12-04T07:35:16.409Z,1017.22
2018-12-04T07:36:16.741Z,1017.26
2018-12-04T07:37:16.348Z,1017.26
2018-12-04T07:38:16.434Z,1017.3
2018-12-04T07:39:16.320Z,1017.31
2018-12-04T07:40:16.387Z,1017.34
2018-12-04T07:41:16.462Z,1017.38
2018-12-04T07:42:16.448Z,1017.41
2018-12-04T07:43:16.484Z,1017.45
2018-12-04T07:44:16.556Z,1017.44
2018-12-04T07:45:16.439Z,1017.41
2018-12-04T07:46:16.464Z,1017.44
2018-12-04T07:47:16.587Z,1017.44
2018-12-04T07:48:16.503Z,1017.47
2018-12-04T07:49:16.428Z,1017.43
2018-12-04T07:50:16.390Z,1017.47
2018-12-04T07:51:16.629Z,1017.54
2018-12-04T07:52:16.509Z,1017.5
2018-12-04T07:53:16.521Z,1017.6
2018-12-04T07:54:16.496Z,1017.64
2018-12-04T07:55:16.385Z,1017.66
2018-12-04T07:56:16.431Z,1017.73
2018-12-04T07:57:16.312Z,1017.72
2018-12-04T07:58:16.457Z,1017.84
2018-12-04T07:59:16.581Z,1017.84
2018-12-04T08:00:16.521Z,1017.89
2018-12-04T08:01:16.302Z,1017.9
2018-12-04T08:02:16.330Z,1017.94
2018-12-04T08:03:16.531Z,1017.97
2018-12-04T08:04:16.479Z,1018
2018-12-04T08:05:16.422Z,1018.05
2018-12-04T08:06:16.358Z,1018.12
2018-12-04T08:07:16.321Z,1018.12
2018-12-04T08:08:16.251Z,1018.11
2018-12-04T08:09:16.309Z,1018.14
2018-12-04T08:10:16.302Z,1018.2
2018-12-04T08:11:16.290Z,1018.19
2018-12-04T08:12:16.279Z,1018.19
2018-12-04T08:13:16.411Z,1018.15
2018-12-04T08:14:16.346Z,1018.14
2018-12-04T08:15:16.252Z,1018.21
2018-12-04T08:16:16.306Z,1018.2
2018-12-04T08:17:16.689Z,1018.32
2018-12-04T08:18:16.302Z,1018.31
2018-12-04T08:19:16.278Z,1018.33
2018-12-04T08:20:16.285Z,1018.41
2018-12-04T08:21:16.293Z,1018.45
2018-12-04T08:22:16.337Z,1018.44
2018-12-04T08:23:16.312Z,1018.46
2018-12-04T08:24:16.537Z,1018.45
2018-12-04T08:25:16.304Z,1018.5
2018-12-04T08:26:16.327Z,1018.56
2018-12-04T08:27:16.486Z,1018.52
2018-12-04T08:28:16.341Z,1018.57
2018-12-04T08:29:16.267Z,1018.59
2018-12-04T08:30:16.323Z,1018.61
2018-12-04T08:31:16.281Z,1018.68
2018-12-04T08:32:16.355Z,1018.71
2018-12-04T08:33:16.383Z,1018.78
2018-12-04T08:34:16.463Z,1018.77
2018-12-04T08:35:16.343Z,1018.86
2018-12-04T08:36:16.350Z,1018.83
2018-12-04T08:37:16.509Z,1018.86
2018-12-04T08:38:16.254Z,1018.84
2018-12-04T08:39:16.323Z,1018.84
2018-12-04T08:40:16.447Z,1018.87
2018-12-04T08:41:16.252Z,1018.91
2018-12-04T08:42:16.417Z,1018.95
2018-12-04T08:43:16.397Z,1019
2018-12-04T08:44:16.550Z,1018.99
2018-12-04T08:45:16.314Z,1018.94
2018-12-04T08:46:16.381Z,1018.99
2018-12-04T08:47:17.110Z,1019.02
2018-12-04T08:48:17.021Z,1019
2018-12-04T08:49:16.546Z,1019.05
2018-12-04T08:50:16.344Z,1019.02
2018-12-04T08:51:16.325Z,1019.06
2018-12-04T08:52:16.315Z,1019.15
2018-12-04T08:53:16.418Z,1019.15
2018-12-04T08:54:16.265Z,1019.15
2018-12-04T08:55:16.287Z,1019.19
2018-12-04T08:56:16.719Z,1019.27
2018-12-04T08:57:16.498Z,1019.3
2018-12-04T08:58:16.480Z,1019.28
2018-12-04T08:59:16.411Z,1019.27
2018-12-04T09:00:16.230Z,1019.33
2018-12-04T09:01:16.282Z,1019.39
2018-12-04T09:02:16.719Z,1019.38
2018-12-04T09:03:16.334Z,1019.43
2018-12-04T09:04:16.346Z,1019.41
2018-12-04T09:05:16.410Z,1019.52
2018-12-04T09:06:16.245Z,1019.5
2018-12-04T09:07:17.057Z,1019.56
2018-12-04T09:08:16.260Z,1019.54
2018-12-04T09:09:16.222Z,1019.62
2018-12-04T09:10:16.423Z,1019.62
2018-12-04T09:11:16.391Z,1019.58
2018-12-04T09:12:16.318Z,1019.58
2018-12-04T09:13:16.274Z,1019.6
2018-12-04T09:14:16.347Z,1019.61
2018-12-04T09:15:16.391Z,1019.68
2018-12-04T09:16:16.381Z,1019.69
2018-12-04T09:17:16.271Z,1019.74
2018-12-04T09:18:16.298Z,1019.71
2018-12-04T09:19:16.225Z,1019.68
2018-12-04T09:20:17.253Z,1019.74
2018-12-04T09:21:16.333Z,1019.71
2018-12-04T09:22:16.287Z,1019.75
2018-12-04T09:23:16.383Z,1019.76
2018-12-04T09:24:16.718Z,1019.83
2018-12-04T09:25:16.219Z,1019.78
2018-12-04T09:26:16.710Z,1019.81
2018-12-04T09:27:16.335Z,1019.81
2018-12-04T09:28:16.494Z,1019.81
2018-12-04T09:29:16.386Z,1019.82
2018-12-04T09:30:16.465Z,1019.85
2018-12-04T09:31:16.392Z,1019.86
2018-12-04T09:32:16.368Z,1019.93
2018-12-04T09:33:16.632Z,1019.95
2018-12-04T09:34:16.682Z,1019.99
2018-12-04T09:35:16.200Z,1019.97
2018-12-04T09:36:16.466Z,1019.97
2018-12-04T09:37:16.656Z,1020.02
2018-12-04T09:38:16.241Z,1020.03
2018-12-04T09:39:16.199Z,1020.06
2018-12-04T09:40:16.206Z,1020.11
2018-12-04T09:41:16.593Z,1020.1
2018-12-04T09:42:16.169Z,1020.12
2018-12-04T09:43:16.167Z,1020.12
2018-12-04T09:44:16.208Z,1020.18
2018-12-04T09:45:16.176Z,1020.19
2018-12-04T09:46:16.777Z,1020.24
2018-12-04T09:47:16.902Z,1020.25
2018-12-04T09:48:16.209Z,1020.28
2018-12-04T09:49:16.168Z,1020.27
2018-12-04T09:50:16.239Z,1020.3
2018-12-04T09:51:16.219Z,1020.33
2018-12-04T09:52:16.135Z,1020.33
2018-12-04T09:53:16.163Z,1020.38
2018-12-04T09:54:16.255Z,1020.36
2018-12-04T09:55:16.162Z,1020.34
2018-12-04T09:56:16.168Z,1020.37
2018-12-04T09:57:16.159Z,1020.39
2018-12-04T09:58:16.145Z,1020.41
2018-12-04T09:59:16.242Z,1020.46
2018-12-04T10:00:16.159Z,1020.42
2018-12-04T10:01:16.190Z,1020.37
2018-12-04T10:02:16.181Z,1020.45
2018-12-04T10:03:16.543Z,1020.45
2018-12-04T10:04:16.106Z,1020.49
2018-12-04T10:05:16.195Z,1020.46
2018-12-04T10:06:16.289Z,1020.5
2018-12-04T10:07:16.301Z,1020.47
2018-12-04T10:08:16.190Z,1020.53
2018-12-04T10:09:16.196Z,1020.5
2018-12-04T10:10:16.200Z,1020.46
2018-12-04T10:11:16.422Z,1020.53
2018-12-04T10:12:16.220Z,1020.49
2018-12-04T10:13:16.300Z,1020.53
2018-12-04T10:14:16.414Z,1020.5
2018-12-04T10:15:16.985Z,1020.48
2018-12-04T10:16:16.353Z,1020.51
2018-12-04T10:17:16.233Z,1020.51
2018-12-04T10:18:16.156Z,1020.5
2018-12-04T10:19:16.246Z,1020.57
2018-12-04T10:20:16.605Z,1020.59
2018-12-04T10:21:16.130Z,1020.57
2018-12-04T10:22:16.609Z,1020.58
2018-12-04T10:23:16.225Z,1020.62
2018-12-04T10:24:16.441Z,1020.64
2018-12-04T10:25:16.733Z,1020.65
2018-12-04T10:26:16.385Z,1020.66
2018-12-04T10:27:16.365Z,1020.66
2018-12-04T10:28:16.267Z,1020.68
2018-12-04T10:29:16.489Z,1020.71
2018-12-04T10:30:16.404Z,1020.65
2018-12-04T10:31:16.572Z,1020.7
2018-12-04T10:32:16.457Z,1020.7
2018-12-04T10:33:18.557Z,1020.74
2018-12-04T10:34:16.183Z,1020.77
2018-12-04T10:35:16.493Z,1020.75
2018-12-04T10:36:16.475Z,1020.82
2018-12-04T10:37:16.280Z,1020.79
2018-12-04T10:38:16.336Z,1020.81
2018-12-04T10:39:16.085Z,1020.82
2018-12-04T10:40:16.461Z,1020.84
2018-12-04T10:41:16.368Z,1020.86
2018-12-04T10:42:16.253Z,1020.82
2018-12-04T10:43:16.112Z,1020.9
2018-12-04T10:44:16.315Z,1020.88
2018-12-04T10:45:16.227Z,1020.91
2018-12-04T10:46:16.294Z,1020.93
2018-12-04T10:47:16.314Z,1020.94
2018-12-04T10:48:16.154Z,1020.94
2018-12-04T10:49:16.505Z,1021.02
2018-12-04T10:50:16.146Z,1021.03
2018-12-04T10:51:16.178Z,1021.01
2018-12-04T10:52:16.305Z,1021.04
2018-12-04T10:53:16.149Z,1020.99
2018-12-04T10:54:16.985Z,1021.03
2018-12-04T10:55:16.205Z,1021.05
2018-12-04T10:56:16.114Z,1021.06
2018-12-04T10:57:16.378Z,1021.06
2018-12-04T10:58:16.407Z,1021.09
2018-12-04T10:59:16.356Z,1021.09
2018-12-04T11:00:16.406Z,1021.17
2018-12-04T11:01:16.407Z,1021.17
2018-12-04T11:02:16.332Z,1021.12
2018-12-04T11:03:16.099Z,1021.2
2018-12-04T11:04:16.250Z,1021.21
2018-12-04T11:05:16.076Z,1021.24
2018-12-04T11:06:17.061Z,1021.2
2018-12-04T11:07:16.060Z,1021.26
2018-12-04T11:08:16.056Z,1021.31
2018-12-04T11:09:16.330Z,1021.33
2018-12-04T11:10:16.250Z,1021.37
2018-12-04T11:11:16.195Z,1021.38
2018-12-04T11:12:16.906Z,1021.39
2018-12-04T11:13:17.121Z,1021.41
2018-12-04T11:14:16.380Z,1021.44
2018-12-04T11:15:16.117Z,1021.46
2018-12-04T11:16:17.014Z,1021.43
2018-12-04T11:17:16.024Z,1021.47
2018-12-04T11:18:17.023Z,1021.52
2018-12-04T11:19:17.224Z,1021.47
2018-12-04T11:20:19.006Z,1021.51
2018-12-04T11:21:16.486Z,1021.54
2018-12-04T11:22:18.843Z,1021.59
2018-12-04T11:23:16.103Z,1021.54
2018-12-04T11:24:16.078Z,1021.59
2018-12-04T11:25:16.102Z,1021.61
2018-12-04T11:26:16.109Z,1021.59
2018-12-04T11:27:16.081Z,1021.62
2018-12-04T11:28:16.153Z,1021.65
2018-12-04T11:29:16.223Z,1021.64
2018-12-04T11:30:16.065Z,1021.65
2018-12-04T11:31:16.044Z,1021.65
2018-12-04T11:32:16.057Z,1021.62
2018-12-04T11:33:16.064Z,1021.67
2018-12-04T11:34:16.025Z,1021.67
2018-12-04T11:35:16.049Z,1021.62
2018-12-04T11:36:16.225Z,1021.61
2018-12-04T11:37:16.106Z,1021.62
2018-12-04T11:38:16.056Z,1021.64
2018-12-04T11:39:16.157Z,1021.66
2018-12-04T11:40:16.111Z,1021.68
2018-12-04T11:41:16.039Z,1021.73
2018-12-04T11:42:16.228Z,1021.8
2018-12-04T11:43:16.033Z,1021.76
2018-12-04T11:44:16.283Z,1021.77
2018-12-04T11:45:16.204Z,1021.74
2018-12-04T11:46:16.059Z,1021.75
2018-12-04T11:47:16.384Z,1021.8
2018-12-04T11:48:16.241Z,1021.87
2018-12-04T11:49:16.545Z,1021.82
2018-12-04T11:50:16.534Z,1021.89
2018-12-04T11:51:16.290Z,1021.86
2018-12-04T11:52:16.180Z,1021.83
2018-12-04T11:53:16.118Z,1021.83
2018-12-04T11:54:16.895Z,1021.85
2018-12-04T11:55:16.314Z,1021.83
2018-12-04T11:56:16.388Z,1021.93
2018-12-04T11:57:16.093Z,1021.88
2018-12-04T11:58:16.308Z,1021.94
2018-12-04T11:59:16.273Z,1021.94
2018-12-04T12:00:16.146Z,1021.99
2018-12-04T12:01:16.385Z,1021.98
2018-12-04T12:02:16.029Z,1022.04
2018-12-04T12:03:16.159Z,1022.05
2018-12-04T12:04:16.074Z,1022.09
2018-12-04T12:05:16.052Z,1022.04
2018-12-04T12:06:16.287Z,1022.05
2018-12-04T12:07:20.746Z,1022.08
2018-12-04T12:08:16.007Z,1022.13